sensor_id;sensor_type;location;lat;lon;timestamp;pressure;altitude;pressure_sealevel;temperature;humidity
79413;BME280;68863;49.528;11.010;2024-02-21T00:00:18;99174.63;;;10.59;55.01
79413;BME280;68863;49.528;11.010;2024-02-21T00:01:18;99176.69;;;10.84;54.55
79413;BME280;68863;49.528;11.010;2024-02-21T00:02:20;99179.38;;;10.98;54.09
79413;BME280;68863;49.528;11.010;2024-02-21T00:03:21;99174.50;;;10.92;54.32
79413;BME280;68863;49.528;11.010;2024-02-21T00:04:21;99172.88;;;10.90;54.62
79413;BME280;68863;49.528;11.010;2024-02-21T00:05:21;99173.22;;;10.84;54.90
79413;BME280;68863;49.528;11.010;2024-02-21T00:06:22;99174.59;;;10.75;54.88
79413;BME280;68863;49.528;11.010;2024-02-21T00:07:22;99175.00;;;10.83;54.42
79413;BME280;68863;49.528;11.010;2024-02-21T00:08:22;99175.88;;;10.68;54.91
79413;BME280;68863;49.528;11.010;2024-02-21T00:09:23;99169.88;;;10.66;55.18
79413;BME280;68863;49.528;11.010;2024-02-21T00:10:23;99176.13;;;10.79;54.90
79413;BME280;68863;49.528;11.010;2024-02-21T00:11:25;99167.13;;;10.83;54.59
79413;BME280;68863;49.528;11.010;2024-02-21T00:12:25;99164.66;;;10.80;54.77
79413;BME280;68863;49.528;11.010;2024-02-21T00:13:25;99164.78;;;10.78;54.89
79413;BME280;68863;49.528;11.010;2024-02-21T00:14:26;99160.94;;;10.84;54.85
79413;BME280;68863;49.528;11.010;2024-02-21T00:15:26;99162.41;;;10.74;54.94
79413;BME280;68863;49.528;11.010;2024-02-21T00:16:27;99160.31;;;10.95;54.65
79413;BME280;68863;49.528;11.010;2024-02-21T00:17:27;99157.47;;;10.84;54.59
79413;BME280;68863;49.528;11.010;2024-02-21T00:18:27;99163.56;;;10.84;54.85
79413;BME280;68863;49.528;11.010;2024-02-21T00:19:28;99159.47;;;10.94;54.95
79413;BME280;68863;49.528;11.010;2024-02-21T00:20:28;99166.06;;;11.01;54.52
79413;BME280;68863;49.528;11.010;2024-02-21T00:21:29;99150.84;;;10.92;54.70
79413;BME280;68863;49.528;11.010;2024-02-21T00:22:30;99155.28;;;11.06;54.43
79413;BME280;68863;49.528;11.010;2024-02-21T00:23:31;99157.34;;;11.01;54.36
79413;BME280;68863;49.528;11.010;2024-02-21T00:24:31;99162.88;;;10.96;54.38
79413;BME280;68863;49.528;11.010;2024-02-21T00:25:32;99154.84;;;11.14;54.35
79413;BME280;68863;49.528;11.010;2024-02-21T00:26:32;99153.72;;;11.18;54.05
79413;BME280;68863;49.528;11.010;2024-02-21T00:27:32;99151.03;;;11.03;54.06
79413;BME280;68863;49.528;11.010;2024-02-21T00:28:33;99154.44;;;11.06;54.38
79413;BME280;68863;49.528;11.010;2024-02-21T00:29:33;99140.91;;;10.97;55.09
79413;BME280;68863;49.528;11.010;2024-02-21T00:30:34;99137.88;;;10.89;55.15
79413;BME280;68863;49.528;11.010;2024-02-21T00:31:35;99145.94;;;11.16;54.43
79413;BME280;68863;49.528;11.010;2024-02-21T00:32:35;99142.44;;;11.01;54.42
79413;BME280;68863;49.528;11.010;2024-02-21T00:33:35;99142.97;;;10.92;54.81
79413;BME280;68863;49.528;11.010;2024-02-21T00:34:36;99139.34;;;11.09;54.51
79413;BME280;68863;49.528;11.010;2024-02-21T00:35:36;99148.34;;;11.05;54.67
79413;BME280;68863;49.528;11.010;2024-02-21T00:36:37;99146.25;;;10.96;55.03
79413;BME280;68863;49.528;11.010;2024-02-21T00:37:37;99144.88;;;11.04;54.46
79413;BME280;68863;49.528;11.010;2024-02-21T00:38:37;99144.66;;;10.93;54.80
79413;BME280;68863;49.528;11.010;2024-02-21T00:39:38;99143.53;;;10.97;54.63
79413;BME280;68863;49.528;11.010;2024-02-21T00:40:38;99142.88;;;10.94;54.73
79413;BME280;68863;49.528;11.010;2024-02-21T00:41:38;99143.75;;;11.09;54.33
79413;BME280;68863;49.528;11.010;2024-02-21T00:42:39;99138.19;;;10.69;55.27
79413;BME280;68863;49.528;11.010;2024-02-21T00:43:39;99141.22;;;10.77;54.84
79413;BME280;68863;49.528;11.010;2024-02-21T00:44:39;99138.59;;;10.77;55.20
79413;BME280;68863;49.528;11.010;2024-02-21T00:45:40;99138.94;;;10.71;55.12
79413;BME280;68863;49.528;11.010;2024-02-21T00:46:40;99138.59;;;10.77;55.42
79413;BME280;68863;49.528;11.010;2024-02-21T00:47:41;99138.78;;;10.74;55.17
79413;BME280;68863;49.528;11.010;2024-02-21T00:48:41;99130.75;;;10.91;55.01
79413;BME280;68863;49.528;11.010;2024-02-21T00:49:41;99129.59;;;10.81;55.17
79413;BME280;68863;49.528;11.010;2024-02-21T00:50:42;99129.47;;;10.98;54.96
79413;BME280;68863;49.528;11.010;2024-02-21T00:51:42;99130.75;;;10.91;54.82
79413;BME280;68863;49.528;11.010;2024-02-21T00:52:42;99131.81;;;11.03;54.64
79413;BME280;68863;49.528;11.010;2024-02-21T00:53:43;99127.78;;;10.97;54.62
79413;BME280;68863;49.528;11.010;2024-02-21T00:54:43;99123.94;;;11.03;55.07
79413;BME280;68863;49.528;11.010;2024-02-21T00:55:44;99129.50;;;11.13;54.49
79413;BME280;68863;49.528;11.010;2024-02-21T00:56:44;99122.75;;;11.09;54.19
79413;BME280;68863;49.528;11.010;2024-02-21T00:57:45;99124.78;;;11.03;54.95
79413;BME280;68863;49.528;11.010;2024-02-21T00:58:45;99123.97;;;10.87;55.57
79413;BME280;68863;49.528;11.010;2024-02-21T00:59:45;99123.47;;;10.96;55.32
79413;BME280;68863;49.528;11.010;2024-02-21T01:00:46;99122.69;;;10.94;54.84
79413;BME280;68863;49.528;11.010;2024-02-21T01:01:46;99119.06;;;10.97;55.38
79413;BME280;68863;49.528;11.010;2024-02-21T01:02:46;99118.88;;;11.00;54.51
79413;BME280;68863;49.528;11.010;2024-02-21T01:03:47;99115.47;;;10.98;55.01
79413;BME280;68863;49.528;11.010;2024-02-21T01:04:47;99112.56;;;11.02;54.57
79413;BME280;68863;49.528;11.010;2024-02-21T01:05:47;99115.41;;;11.14;54.38
79413;BME280;68863;49.528;11.010;2024-02-21T01:06:48;99105.09;;;11.11;54.31
79413;BME280;68863;49.528;11.010;2024-02-21T01:07:48;99108.16;;;11.03;54.50
79413;BME280;68863;49.528;11.010;2024-02-21T01:08:49;99105.63;;;11.01;54.64
79413;BME280;68863;49.528;11.010;2024-02-21T01:09:49;99100.31;;;11.17;54.15
79413;BME280;68863;49.528;11.010;2024-02-21T01:10:51;99105.56;;;11.17;54.35
79413;BME280;68863;49.528;11.010;2024-02-21T01:11:52;99106.88;;;11.10;54.92
79413;BME280;68863;49.528;11.010;2024-02-21T01:12:52;99101.91;;;11.06;54.99
79413;BME280;68863;49.528;11.010;2024-02-21T01:13:53;99098.81;;;11.13;54.55
79413;BME280;68863;49.528;11.010;2024-02-21T01:14:53;99105.81;;;10.98;54.42
79413;BME280;68863;49.528;11.010;2024-02-21T01:15:53;99108.56;;;11.11;54.53
79413;BME280;68863;49.528;11.010;2024-02-21T01:16:54;99106.13;;;11.08;54.74
79413;BME280;68863;49.528;11.010;2024-02-21T01:17:54;99105.25;;;11.08;54.62
79413;BME280;68863;49.528;11.010;2024-02-21T01:18:54;99096.09;;;11.15;54.41
79413;BME280;68863;49.528;11.010;2024-02-21T01:19:55;99093.84;;;11.09;54.54
79413;BME280;68863;49.528;11.010;2024-02-21T01:20:55;99096.47;;;11.09;54.66
79413;BME280;68863;49.528;11.010;2024-02-21T01:21:56;99096.53;;;11.07;54.68
79413;BME280;68863;49.528;11.010;2024-02-21T01:22:56;99103.47;;;10.94;54.84
79413;BME280;68863;49.528;11.010;2024-02-21T01:23:56;99096.44;;;10.94;54.94
79413;BME280;68863;49.528;11.010;2024-02-21T01:24:57;99100.38;;;11.01;55.33
79413;BME280;68863;49.528;11.010;2024-02-21T01:25:57;99093.56;;;11.13;55.15
79413;BME280;68863;49.528;11.010;2024-02-21T01:26:58;99090.81;;;11.15;54.37
79413;BME280;68863;49.528;11.010;2024-02-21T01:27:58;99092.91;;;11.10;54.70
79413;BME280;68863;49.528;11.010;2024-02-21T01:28:58;99088.38;;;10.97;54.91
79413;BME280;68863;49.528;11.010;2024-02-21T01:29:59;99089.88;;;11.01;54.75
79413;BME280;68863;49.528;11.010;2024-02-21T01:30:59;99087.06;;;11.04;54.58
79413;BME280;68863;49.528;11.010;2024-02-21T01:31:59;99087.41;;;10.98;55.04
79413;BME280;68863;49.528;11.010;2024-02-21T01:33:00;99085.94;;;11.09;54.63
79413;BME280;68863;49.528;11.010;2024-02-21T01:34:00;99095.06;;;11.17;54.46
79413;BME280;68863;49.528;11.010;2024-02-21T01:35:01;99089.69;;;11.04;55.04
79413;BME280;68863;49.528;11.010;2024-02-21T01:36:02;99088.97;;;11.17;54.87
79413;BME280;68863;49.528;11.010;2024-02-21T01:37:03;99089.31;;;11.11;54.67
79413;BME280;68863;49.528;11.010;2024-02-21T01:38:05;99085.81;;;10.96;55.15
79413;BME280;68863;49.528;11.010;2024-02-21T01:39:05;99077.13;;;11.10;54.62
79413;BME280;68863;49.528;11.010;2024-02-21T01:40:06;99080.56;;;10.96;55.44
79413;BME280;68863;49.528;11.010;2024-02-21T01:41:06;99088.53;;;10.94;55.20
79413;BME280;68863;49.528;11.010;2024-02-21T01:42:07;99081.56;;;10.79;55.89
79413;BME280;68863;49.528;11.010;2024-02-21T01:43:19;99072.03;;;11.07;55.12
79413;BME280;68863;49.528;11.010;2024-02-21T01:44:20;99074.00;;;11.03;55.08
79413;BME280;68863;49.528;11.010;2024-02-21T01:45:20;99074.13;;;11.01;55.08
79413;BME280;68863;49.528;11.010;2024-02-21T01:46:21;99073.16;;;11.02;54.92
79413;BME280;68863;49.528;11.010;2024-02-21T01:47:21;99072.44;;;11.00;55.33
79413;BME280;68863;49.528;11.010;2024-02-21T01:48:22;99072.63;;;11.12;54.80
79413;BME280;68863;49.528;11.010;2024-02-21T01:49:23;99064.28;;;11.05;55.05
79413;BME280;68863;49.528;11.010;2024-02-21T01:50:24;99067.72;;;11.06;55.28
79413;BME280;68863;49.528;11.010;2024-02-21T01:51:25;99069.25;;;11.10;54.91
79413;BME280;68863;49.528;11.010;2024-02-21T01:52:25;99060.19;;;10.99;54.78
79413;BME280;68863;49.528;11.010;2024-02-21T01:53:52;99068.56;;;11.06;55.07
79413;BME280;68863;49.528;11.010;2024-02-21T01:54:53;99059.28;;;11.15;54.94
79413;BME280;68863;49.528;11.010;2024-02-21T01:55:53;99062.38;;;11.07;55.46
79413;BME280;68863;49.528;11.010;2024-02-21T01:56:55;99063.03;;;10.96;55.18
79413;BME280;68863;49.528;11.010;2024-02-21T01:57:56;99056.38;;;11.05;55.26
79413;BME280;68863;49.528;11.010;2024-02-21T01:58:57;99049.53;;;11.02;55.30
79413;BME280;68863;49.528;11.010;2024-02-21T01:59:57;99057.41;;;11.02;55.13
79413;BME280;68863;49.528;11.010;2024-02-21T02:00:59;99056.19;;;10.94;55.05
79413;BME280;68863;49.528;11.010;2024-02-21T02:02:00;99061.53;;;10.92;55.47
79413;BME280;68863;49.528;11.010;2024-02-21T02:03:00;99060.59;;;10.93;55.84
79413;BME280;68863;49.528;11.010;2024-02-21T02:04:01;99052.88;;;10.90;55.59
79413;BME280;68863;49.528;11.010;2024-02-21T02:05:03;99066.34;;;11.00;55.19
79413;BME280;68863;49.528;11.010;2024-02-21T02:06:07;99056.22;;;11.08;55.09
79413;BME280;68863;49.528;11.010;2024-02-21T02:07:07;99056.19;;;10.94;55.36
79413;BME280;68863;49.528;11.010;2024-02-21T02:08:08;99057.38;;;10.88;56.15
79413;BME280;68863;49.528;11.010;2024-02-21T02:09:08;99063.72;;;11.00;55.53
79413;BME280;68863;49.528;11.010;2024-02-21T02:10:08;99068.66;;;10.90;55.47
79413;BME280;68863;49.528;11.010;2024-02-21T02:11:10;99061.31;;;10.95;55.55
79413;BME280;68863;49.528;11.010;2024-02-21T02:12:13;99064.84;;;10.80;55.84
79413;BME280;68863;49.528;11.010;2024-02-21T02:13:14;99059.09;;;10.89;55.78
79413;BME280;68863;49.528;11.010;2024-02-21T02:14:14;99053.00;;;10.89;55.42
79413;BME280;68863;49.528;11.010;2024-02-21T02:15:14;99056.63;;;10.86;56.23
79413;BME280;68863;49.528;11.010;2024-02-21T02:16:15;99055.78;;;10.86;55.94
79413;BME280;68863;49.528;11.010;2024-02-21T02:17:15;99050.91;;;10.94;55.88
79413;BME280;68863;49.528;11.010;2024-02-21T02:18:18;99052.91;;;11.04;55.60
79413;BME280;68863;49.528;11.010;2024-02-21T02:19:18;99049.16;;;11.09;55.13
79413;BME280;68863;49.528;11.010;2024-02-21T02:20:18;99060.06;;;11.17;55.27
79413;BME280;68863;49.528;11.010;2024-02-21T02:21:27;99054.69;;;11.18;55.42
79413;BME280;68863;49.528;11.010;2024-02-21T02:22:31;99050.19;;;11.06;55.67
79413;BME280;68863;49.528;11.010;2024-02-21T02:23:34;99047.44;;;10.93;55.86
79413;BME280;68863;49.528;11.010;2024-02-21T02:24:34;99044.25;;;11.02;55.67
79413;BME280;68863;49.528;11.010;2024-02-21T02:25:35;99043.16;;;10.92;56.04
79413;BME280;68863;49.528;11.010;2024-02-21T02:26:36;99045.34;;;10.84;56.63
79413;BME280;68863;49.528;11.010;2024-02-21T02:27:43;99042.66;;;10.25;57.63
79413;BME280;68863;49.528;11.010;2024-02-21T02:28:46;99040.78;;;10.27;58.07
79413;BME280;68863;49.528;11.010;2024-02-21T02:29:46;99031.97;;;10.28;57.60
79413;BME280;68863;49.528;11.010;2024-02-21T02:30:48;99035.06;;;10.51;57.48
79413;BME280;68863;49.528;11.010;2024-02-21T02:31:49;99033.59;;;10.31;57.90
79413;BME280;68863;49.528;11.010;2024-02-21T02:32:49;99027.91;;;10.39;57.62
79413;BME280;68863;49.528;11.010;2024-02-21T02:33:50;99028.91;;;10.36;57.99
79413;BME280;68863;49.528;11.010;2024-02-21T02:34:50;99031.09;;;10.44;57.55
79413;BME280;68863;49.528;11.010;2024-02-21T02:35:50;99030.59;;;10.37;58.19
79413;BME280;68863;49.528;11.010;2024-02-21T02:36:51;99026.66;;;10.14;58.85
79413;BME280;68863;49.528;11.010;2024-02-21T02:37:51;99024.78;;;10.32;58.05
79413;BME280;68863;49.528;11.010;2024-02-21T02:38:51;99023.16;;;10.29;57.84
79413;BME280;68863;49.528;11.010;2024-02-21T02:39:52;99017.22;;;10.42;57.68
79413;BME280;68863;49.528;11.010;2024-02-21T02:40:52;99022.66;;;10.39;58.00
79413;BME280;68863;49.528;11.010;2024-02-21T02:41:53;99018.97;;;10.57;57.56
79413;BME280;68863;49.528;11.010;2024-02-21T02:42:53;99016.59;;;10.52;57.30
79413;BME280;68863;49.528;11.010;2024-02-21T02:43:55;99013.75;;;10.41;57.70
79413;BME280;68863;49.528;11.010;2024-02-21T02:44:55;99007.09;;;10.20;58.36
79413;BME280;68863;49.528;11.010;2024-02-21T02:45:57;99006.63;;;10.43;57.83
79413;BME280;68863;49.528;11.010;2024-02-21T02:46:57;99007.75;;;10.39;57.82
79413;BME280;68863;49.528;11.010;2024-02-21T02:47:58;99005.41;;;10.49;57.41
79413;BME280;68863;49.528;11.010;2024-02-21T02:48:58;99008.47;;;10.57;57.44
79413;BME280;68863;49.528;11.010;2024-02-21T02:49:59;98999.47;;;10.61;57.26
79413;BME280;68863;49.528;11.010;2024-02-21T02:50:59;99003.53;;;10.81;56.74
79413;BME280;68863;49.528;11.010;2024-02-21T02:52:00;99008.78;;;10.81;56.65
79413;BME280;68863;49.528;11.010;2024-02-21T02:53:00;98998.53;;;10.62;57.20
79413;BME280;68863;49.528;11.010;2024-02-21T02:54:02;98997.66;;;10.47;57.73
79413;BME280;68863;49.528;11.010;2024-02-21T02:55:03;98995.22;;;10.59;57.71
79413;BME280;68863;49.528;11.010;2024-02-21T02:56:04;98996.63;;;10.64;57.18
79413;BME280;68863;49.528;11.010;2024-02-21T02:57:04;98993.16;;;10.49;57.49
79413;BME280;68863;49.528;11.010;2024-02-21T02:58:06;98995.78;;;10.49;57.84
79413;BME280;68863;49.528;11.010;2024-02-21T02:59:06;98994.28;;;10.45;57.76
79413;BME280;68863;49.528;11.010;2024-02-21T03:00:07;98996.25;;;10.56;57.41
79413;BME280;68863;49.528;11.010;2024-02-21T03:01:08;98994.47;;;10.57;57.44
79413;BME280;68863;49.528;11.010;2024-02-21T03:02:08;98996.81;;;10.47;57.81
79413;BME280;68863;49.528;11.010;2024-02-21T03:03:08;98991.00;;;10.56;57.67
79413;BME280;68863;49.528;11.010;2024-02-21T03:04:09;98984.53;;;10.47;57.76
79413;BME280;68863;49.528;11.010;2024-02-21T03:05:17;98998.97;;;10.54;57.33
79413;BME280;68863;49.528;11.010;2024-02-21T03:06:17;98991.16;;;10.53;57.63
79413;BME280;68863;49.528;11.010;2024-02-21T03:07:18;98995.72;;;10.65;57.46
79413;BME280;68863;49.528;11.010;2024-02-21T03:08:18;98994.50;;;10.71;57.12
79413;BME280;68863;49.528;11.010;2024-02-21T03:09:18;98990.00;;;10.87;56.34
79413;BME280;68863;49.528;11.010;2024-02-21T03:10:19;98997.91;;;10.87;56.21
79413;BME280;68863;49.528;11.010;2024-02-21T03:11:19;98997.50;;;10.79;56.49
79413;BME280;68863;49.528;11.010;2024-02-21T03:12:19;99006.44;;;10.91;56.52
79413;BME280;68863;49.528;11.010;2024-02-21T03:13:25;98995.34;;;10.71;56.93
79413;BME280;68863;49.528;11.010;2024-02-21T03:14:25;99000.91;;;10.95;56.52
79413;BME280;68863;49.528;11.010;2024-02-21T03:15:26;99001.28;;;10.89;56.58
79413;BME280;68863;49.528;11.010;2024-02-21T03:16:26;98993.97;;;10.94;56.59
79413;BME280;68863;49.528;11.010;2024-02-21T03:17:26;98988.91;;;10.77;56.38
79413;BME280;68863;49.528;11.010;2024-02-21T03:18:28;98987.03;;;10.49;57.24
79413;BME280;68863;49.528;11.010;2024-02-21T03:19:29;98997.47;;;10.50;57.50
79413;BME280;68863;49.528;11.010;2024-02-21T03:20:29;98986.41;;;10.60;57.51
79413;BME280;68863;49.528;11.010;2024-02-21T03:21:29;98989.72;;;10.63;57.35
79413;BME280;68863;49.528;11.010;2024-02-21T03:22:30;98988.97;;;10.75;56.94
79413;BME280;68863;49.528;11.010;2024-02-21T03:23:30;98989.59;;;10.50;57.53
79413;BME280;68863;49.528;11.010;2024-02-21T03:24:31;98983.19;;;10.85;56.57
79413;BME280;68863;49.528;11.010;2024-02-21T03:25:31;98978.38;;;10.91;56.28
79413;BME280;68863;49.528;11.010;2024-02-21T03:26:32;98980.38;;;11.02;56.30
79413;BME280;68863;49.528;11.010;2024-02-21T03:27:33;98979.22;;;10.92;56.69
79413;BME280;68863;49.528;11.010;2024-02-21T03:28:33;98979.16;;;10.93;56.26
79413;BME280;68863;49.528;11.010;2024-02-21T03:29:33;98982.63;;;10.94;56.52
79413;BME280;68863;49.528;11.010;2024-02-21T03:30:34;98977.41;;;10.64;56.96
79413;BME280;68863;49.528;11.010;2024-02-21T03:31:34;98982.59;;;10.65;57.16
79413;BME280;68863;49.528;11.010;2024-02-21T03:32:35;98981.16;;;10.60;57.40
79413;BME280;68863;49.528;11.010;2024-02-21T03:33:36;98982.09;;;10.59;57.54
79413;BME280;68863;49.528;11.010;2024-02-21T03:34:36;98976.00;;;10.72;57.26
79413;BME280;68863;49.528;11.010;2024-02-21T03:35:36;98971.63;;;10.87;56.69
79413;BME280;68863;49.528;11.010;2024-02-21T03:36:37;98976.78;;;10.74;56.82
79413;BME280;68863;49.528;11.010;2024-02-21T03:37:37;98970.03;;;10.70;57.26
79413;BME280;68863;49.528;11.010;2024-02-21T03:38:38;98969.94;;;10.58;57.70
79413;BME280;68863;49.528;11.010;2024-02-21T03:39:38;98961.84;;;10.46;57.97
79413;BME280;68863;49.528;11.010;2024-02-21T03:40:39;98963.22;;;10.22;58.55
79413;BME280;68863;49.528;11.010;2024-02-21T03:41:39;98969.31;;;10.38;58.02
79413;BME280;68863;49.528;11.010;2024-02-21T03:42:39;98973.84;;;10.50;58.04
79413;BME280;68863;49.528;11.010;2024-02-21T03:43:40;98968.97;;;10.59;57.60
79413;BME280;68863;49.528;11.010;2024-02-21T03:44:40;98967.69;;;10.66;57.59
79413;BME280;68863;49.528;11.010;2024-02-21T03:45:40;98967.28;;;10.72;57.46
79413;BME280;68863;49.528;11.010;2024-02-21T03:46:41;98967.38;;;10.56;57.57
79413;BME280;68863;49.528;11.010;2024-02-21T03:47:41;98958.88;;;10.67;57.29
79413;BME280;68863;49.528;11.010;2024-02-21T03:48:41;98970.47;;;10.63;57.16
79413;BME280;68863;49.528;11.010;2024-02-21T03:49:42;98965.69;;;10.55;57.35
79413;BME280;68863;49.528;11.010;2024-02-21T03:50:43;98966.25;;;10.60;57.38
79413;BME280;68863;49.528;11.010;2024-02-21T03:51:43;98960.34;;;10.57;57.69
79413;BME280;68863;49.528;11.010;2024-02-21T03:52:44;98955.28;;;10.68;57.50
79413;BME280;68863;49.528;11.010;2024-02-21T03:53:44;98955.97;;;10.86;57.02
79413;BME280;68863;49.528;11.010;2024-02-21T03:54:44;98951.66;;;10.70;57.25
79413;BME280;68863;49.528;11.010;2024-02-21T03:55:45;98960.41;;;10.41;58.07
79413;BME280;68863;49.528;11.010;2024-02-21T03:56:45;98959.03;;;10.64;57.57
79413;BME280;68863;49.528;11.010;2024-02-21T03:58:03;98959.03;;;10.64;57.69
79413;BME280;68863;49.528;11.010;2024-02-21T03:59:03;98954.38;;;10.83;57.01
79413;BME280;68863;49.528;11.010;2024-02-21T04:00:04;98958.97;;;10.79;56.97
79413;BME280;68863;49.528;11.010;2024-02-21T04:01:06;98957.47;;;10.75;57.06
79413;BME280;68863;49.528;11.010;2024-02-21T04:02:06;98960.09;;;10.61;57.26
79413;BME280;68863;49.528;11.010;2024-02-21T04:03:09;98954.91;;;10.60;57.56
79413;BME280;68863;49.528;11.010;2024-02-21T04:04:10;98951.16;;;10.64;57.48
79413;BME280;68863;49.528;11.010;2024-02-21T04:05:11;98953.22;;;10.59;57.34
79413;BME280;68863;49.528;11.010;2024-02-21T04:06:11;98950.69;;;10.71;57.45
79413;BME280;68863;49.528;11.010;2024-02-21T04:07:30;98951.91;;;10.80;57.08
79413;BME280;68863;49.528;11.010;2024-02-21T04:08:30;98949.50;;;10.77;57.18
79413;BME280;68863;49.528;11.010;2024-02-21T04:09:31;98954.94;;;10.74;56.85
79413;BME280;68863;49.528;11.010;2024-02-21T04:10:31;98953.06;;;10.90;56.62
79413;BME280;68863;49.528;11.010;2024-02-21T04:11:32;98944.53;;;10.87;56.81
79413;BME280;68863;49.528;11.010;2024-02-21T04:12:32;98948.34;;;10.95;56.79
79413;BME280;68863;49.528;11.010;2024-02-21T04:13:33;98951.19;;;10.78;57.17
79413;BME280;68863;49.528;11.010;2024-02-21T04:14:33;98956.06;;;10.70;57.31
79413;BME280;68863;49.528;11.010;2024-02-21T04:15:35;98954.91;;;10.60;57.30
79413;BME280;68863;49.528;11.010;2024-02-21T04:16:35;98953.31;;;10.71;57.40
79413;BME280;68863;49.528;11.010;2024-02-21T04:17:36;98957.56;;;10.74;57.27
79413;BME280;68863;49.528;11.010;2024-02-21T04:18:36;98951.94;;;10.66;57.73
79413;BME280;68863;49.528;11.010;2024-02-21T04:19:37;98957.63;;;10.72;57.64
79413;BME280;68863;49.528;11.010;2024-02-21T04:20:37;98950.44;;;10.62;57.84
79413;BME280;68863;49.528;11.010;2024-02-21T04:21:37;98954.56;;;10.66;57.77
79413;BME280;68863;49.528;11.010;2024-02-21T04:22:38;98959.66;;;10.39;58.71
79413;BME280;68863;49.528;11.010;2024-02-21T04:23:38;98956.19;;;10.52;58.46
79413;BME280;68863;49.528;11.010;2024-02-21T04:24:38;98952.84;;;10.50;58.92
79413;BME280;68863;49.528;11.010;2024-02-21T04:25:39;98956.75;;;10.43;58.57
79413;BME280;68863;49.528;11.010;2024-02-21T04:26:39;98954.09;;;10.29;59.03
79413;BME280;68863;49.528;11.010;2024-02-21T04:27:41;98956.88;;;10.42;58.95
79413;BME280;68863;49.528;11.010;2024-02-21T04:28:41;98952.19;;;10.47;58.90
79413;BME280;68863;49.528;11.010;2024-02-21T04:29:42;98959.13;;;10.62;58.84
79413;BME280;68863;49.528;11.010;2024-02-21T04:30:42;98956.50;;;10.62;58.55
79413;BME280;68863;49.528;11.010;2024-02-21T04:31:42;98956.59;;;10.61;58.58
79413;BME280;68863;49.528;11.010;2024-02-21T04:32:43;98951.09;;;10.65;58.54
79413;BME280;68863;49.528;11.010;2024-02-21T04:33:43;98957.53;;;10.60;58.80
79413;BME280;68863;49.528;11.010;2024-02-21T04:34:44;98948.00;;;10.73;58.15
79413;BME280;68863;49.528;11.010;2024-02-21T04:35:44;98948.56;;;10.78;58.34
79413;BME280;68863;49.528;11.010;2024-02-21T04:36:44;98947.53;;;10.66;58.62
79413;BME280;68863;49.528;11.010;2024-02-21T04:37:45;98945.44;;;10.71;58.39
79413;BME280;68863;49.528;11.010;2024-02-21T04:38:45;98946.09;;;10.61;58.74
79413;BME280;68863;49.528;11.010;2024-02-21T04:39:46;98945.50;;;10.41;58.90
79413;BME280;68863;49.528;11.010;2024-02-21T04:40:46;98941.50;;;10.64;58.36
79413;BME280;68863;49.528;11.010;2024-02-21T04:41:46;98937.03;;;10.81;58.18
79413;BME280;68863;49.528;11.010;2024-02-21T04:42:47;98936.03;;;10.53;58.75
79413;BME280;68863;49.528;11.010;2024-02-21T04:43:47;98931.00;;;10.78;58.32
79413;BME280;68863;49.528;11.010;2024-02-21T04:44:48;98928.97;;;10.69;58.24
79413;BME280;68863;49.528;11.010;2024-02-21T04:45:48;98925.94;;;10.61;58.50
79413;BME280;68863;49.528;11.010;2024-02-21T04:46:49;98927.50;;;10.35;59.17
79413;BME280;68863;49.528;11.010;2024-02-21T04:47:49;98932.41;;;10.70;58.27
79413;BME280;68863;49.528;11.010;2024-02-21T04:48:49;98935.69;;;10.59;58.57
79413;BME280;68863;49.528;11.010;2024-02-21T04:49:50;98936.16;;;10.66;58.37
79413;BME280;68863;49.528;11.010;2024-02-21T04:50:50;98936.16;;;10.66;58.59
79413;BME280;68863;49.528;11.010;2024-02-21T04:51:50;98936.91;;;10.53;58.79
79413;BME280;68863;49.528;11.010;2024-02-21T04:52:51;98929.94;;;10.52;59.11
79413;BME280;68863;49.528;11.010;2024-02-21T04:53:51;98922.28;;;10.49;59.51
79413;BME280;68863;49.528;11.010;2024-02-21T04:54:52;98920.50;;;10.50;58.92
79413;BME280;68863;49.528;11.010;2024-02-21T04:55:52;98919.66;;;10.49;59.41
79413;BME280;68863;49.528;11.010;2024-02-21T04:56:52;98918.63;;;10.66;58.66
79413;BME280;68863;49.528;11.010;2024-02-21T04:57:53;98916.00;;;10.66;59.15
79413;BME280;68863;49.528;11.010;2024-02-21T04:58:54;98911.31;;;10.57;58.70
79413;BME280;68863;49.528;11.010;2024-02-21T04:59:54;98913.44;;;10.36;59.03
79413;BME280;68863;49.528;11.010;2024-02-21T05:00:54;98912.91;;;10.45;59.50
79413;BME280;68863;49.528;11.010;2024-02-21T05:01:55;98901.63;;;10.43;59.51
79413;BME280;68863;49.528;11.010;2024-02-21T05:03:32;98898.28;;;10.55;59.12
79413;BME280;68863;49.528;11.010;2024-02-21T05:04:33;98903.31;;;10.44;59.22
79413;BME280;68863;49.528;11.010;2024-02-21T05:05:34;98903.06;;;10.63;59.34
79413;BME280;68863;49.528;11.010;2024-02-21T05:06:40;98900.63;;;10.74;59.14
79413;BME280;68863;49.528;11.010;2024-02-21T05:07:41;98893.56;;;10.61;59.31
79413;BME280;68863;49.528;11.010;2024-02-21T05:08:42;98892.09;;;10.71;58.92
79413;BME280;68863;49.528;11.010;2024-02-21T05:09:42;98896.00;;;10.35;60.21
79413;BME280;68863;49.528;11.010;2024-02-21T05:10:43;98889.91;;;10.35;60.42
79413;BME280;68863;49.528;11.010;2024-02-21T05:11:43;98888.22;;;10.48;60.21
79413;BME280;68863;49.528;11.010;2024-02-21T05:12:44;98894.06;;;10.67;59.17
79413;BME280;68863;49.528;11.010;2024-02-21T05:13:44;98886.34;;;10.64;59.30
79413;BME280;68863;49.528;11.010;2024-02-21T05:14:44;98894.44;;;10.75;58.98
79413;BME280;68863;49.528;11.010;2024-02-21T05:15:45;98889.81;;;10.65;59.14
79413;BME280;68863;49.528;11.010;2024-02-21T05:16:45;98884.56;;;10.65;58.90
79413;BME280;68863;49.528;11.010;2024-02-21T05:17:45;98886.28;;;10.66;59.26
79413;BME280;68863;49.528;11.010;2024-02-21T05:18:46;98882.25;;;10.74;58.56